Shelby, Michigan
Current Conditions -  °F | °C
As of 3:14 PM on Thursday 29 Jan 2015 (Local Time) from KFFX Reporting Station
Overcast Overcast  
Wind Chill: 20°   Ceiling: 1600
Heat Index: 32°   Visibility: 7mi
Dew Point: 27°   Wind: 21mph
Humidity: 80%   Direction: 340°NNW
Pressure: 29.85"   Gusts: 30mph
Location:  43.61°N, 86.36°W
Report Text: KFFX 292014Z AUTO 34018G26KT 7SM OVC016 00/M03 A2985 RMK AO2 T00001030
Loading
Personal Weather Stations






























Interactive Weather Map New forecast layout! Learn more

10-Day Weather Forecast

Advertisements
Track Severe Weather on mobile